Time;durP1;ratioP1;P1;durP2;ratioP2;P2;SDS_P1;SDS_P2;PMS_P1;PMS_P2;Temp;Humidity;BMP_temperature;BMP_pressure;BME280_temperature;BME280_humidity;BME280_pressure;Samples;Min_cycle;Max_cycle;Signal;HPM_P1;HPM_P2
2021/01/03 00:00:20;;;;;;;50.47;29.57;;;6.40;99.90;;;;;;4993892;28;20510;-83
2021/01/03 00:02:47;;;;;;;45.00;27.77;;;6.30;99.90;;;;;;4993642;28;20176;-81
2021/01/03 00:08:34;;;;;;;44.13;26.10;;;6.40;99.90;;;;;;4993629;28;20463;-81
2021/01/03 00:10:59;;;;;;;45.93;27.40;;;6.40;99.90;;;;;;4997077;28;20827;-81
2021/01/03 00:13:25;;;;;;;39.57;25.20;;;6.30;99.90;;;;;;4997449;28;20184;-82
2021/01/03 00:19:12;;;;;;;43.93;26.60;;;6.40;99.90;;;;;;4997126;28;20176;-85
2021/01/03 00:25:00;;;;;;;41.27;24.70;;;6.30;99.90;;;;;;4996998;28;20162;-83
2021/01/03 00:27:25;;;;;;;43.17;27.07;;;6.30;99.90;;;;;;4996874;28;20428;-88
2021/01/03 00:29:51;;;;;;;43.17;25.77;;;6.30;99.90;;;;;;4997087;28;20250;-85
2021/01/03 00:32:17;;;;;;;41.20;26.30;;;6.30;99.90;;;;;;4997323;28;20184;-85
2021/01/03 00:34:42;;;;;;;46.57;25.90;;;6.30;99.90;;;;;;4997046;28;20463;-85
2021/01/03 00:37:08;;;;;;;42.63;24.33;;;6.30;99.90;;;;;;4998036;28;20181;-88
2021/01/03 00:39:33;;;;;;;46.13;26.30;;;6.30;99.90;;;;;;4996936;28;20430;-89
2021/01/03 00:41:59;;;;;;;41.20;26.00;;;6.30;99.90;;;;;;4996788;28;20268;-87
2021/01/03 00:44:25;;;;;;;40.40;25.87;;;6.30;99.90;;;;;;4996965;28;20261;-86
2021/01/03 00:46:50;;;;;;;43.97;27.70;;;6.30;99.90;;;;;;4997195;28;20207;-91
2021/01/03 00:49:16;;;;;;;40.23;25.10;;;6.20;99.90;;;;;;4996800;28;20424;-91
2021/01/03 00:51:42;;;;;;;42.23;26.13;;;6.30;99.90;;;;;;4996709;28;20548;-88
2021/01/03 00:54:08;;;;;;;41.93;25.27;;;6.20;99.90;;;;;;4995220;28;20251;-88
2021/01/03 00:56:34;;;;;;;40.47;26.77;;;6.20;99.90;;;;;;4997119;28;20182;-87
2021/01/03 00:58:59;;;;;;;45.17;26.70;;;6.20;99.90;;;;;;4996772;28;20533;-86
2021/01/03 01:01:25;;;;;;;49.40;24.80;;;6.20;99.90;;;;;;4996340;28;20182;-83
2021/01/03 01:03:50;;;;;;;46.57;26.47;;;6.20;99.90;;;;;;4996761;28;20181;-79
2021/01/03 01:06:16;;;;;;;44.00;25.13;;;6.20;99.90;;;;;;4996460;28;20207;-85
2021/01/03 01:12:04;;;;;;;39.33;25.40;;;6.20;99.90;;;;;;4996327;28;20188;-85
2021/01/03 01:14:30;;;;;;;40.33;24.93;;;6.20;99.90;;;;;;4996178;28;20417;-84
2021/01/03 01:16:55;;;;;;;44.90;25.40;;;6.10;99.90;;;;;;4996340;28;20177;-82
2021/01/03 01:19:21;;;;;;;38.93;25.57;;;6.10;99.90;;;;;;4996083;28;20517;-83
2021/01/03 01:21:47;;;;;;;42.60;25.60;;;6.10;99.90;;;;;;4996155;28;20304;-83
2021/01/03 01:24:13;;;;;;;42.43;25.70;;;6.20;99.90;;;;;;4996311;28;20460;-82
2021/01/03 01:26:38;;;;;;;37.30;23.00;;;6.10;99.90;;;;;;4996206;28;20173;-82
2021/01/03 01:32:25;;;;;;;40.20;23.70;;;6.20;99.90;;;;;;4995782;28;20206;-82
2021/01/03 01:34:51;;;;;;;43.00;24.43;;;6.20;99.90;;;;;;4995451;28;20472;-81
2021/01/03 01:37:16;;;;;;;44.57;22.97;;;6.20;99.90;;;;;;4996064;28;20644;-75
2021/01/03 01:39:42;;;;;;;33.90;22.10;;;6.20;99.90;;;;;;4995712;28;20214;-76
2021/01/03 01:42:08;;;;;;;40.40;24.00;;;6.20;99.90;;;;;;4995665;28;20211;-75
2021/01/03 01:44:33;;;;;;;38.60;22.97;;;6.10;99.90;;;;;;4995490;28;20268;-78
2021/01/03 01:47:15;;;;;;;32.97;21.30;;;6.10;99.90;;;;;;4995799;28;20180;-78
2021/01/03 01:49:42;;;;;;;41.33;23.03;;;6.10;99.90;;;;;;4995791;28;20230;-78
2021/01/03 01:52:12;;;;;;;44.90;26.73;;;6.10;99.90;;;;;;4995495;28;20501;-78
2021/01/03 01:54:40;;;;;;;39.70;23.40;;;6.10;99.90;;;;;;4995740;28;20436;-78
2021/01/03 01:57:16;;;;;;;42.33;23.60;;;6.20;99.90;;;;;;4995651;28;20519;-78
2021/01/03 02:00:08;;;;;;;41.33;22.47;;;6.10;99.90;;;;;;4995641;28;20432;-78
2021/01/03 02:02:48;;;;;;;39.37;23.37;;;6.20;99.90;;;;;;4995161;28;20463;-78
2021/01/03 02:05:22;;;;;;;31.23;20.67;;;6.10;99.90;;;;;;4995605;28;20420;-78
2021/01/03 02:08:01;;;;;;;39.77;23.43;;;6.10;99.90;;;;;;4995512;28;20414;-75
2021/01/03 06:31:43;;;;;;;13.67;9.17;;;6.00;99.90;;;;;;5710769;23;20494;-73
2021/01/03 06:34:09;;;;;;;11.03;8.40;;;6.00;99.90;;;;;;4994700;28;20434;-73
2021/01/03 06:36:46;;;;;;;16.30;9.47;;;6.00;99.90;;;;;;4994431;28;20435;-73
2021/01/03 06:39:29;;;;;;;12.33;7.87;;;5.90;99.90;;;;;;4994751;28;20192;-75
2021/01/03 06:42:26;;;;;;;13.73;9.90;;;6.00;99.90;;;;;;4994506;28;20420;-79
2021/01/03 06:45:32;;;;;;;12.47;10.33;;;6.00;99.90;;;;;;4979193;28;20439;-73
2021/01/03 06:48:19;;;;;;;12.70;7.80;;;6.00;99.90;;;;;;4994042;28;20488;-73
2021/01/03 06:50:49;;;;;;;11.30;9.13;;;6.00;99.90;;;;;;4994054;28;20831;-73
2021/01/03 06:53:17;;;;;;;11.23;7.23;;;6.00;99.90;;;;;;4994233;28;20845;-76
2021/01/03 06:58:36;;;;;;;12.50;8.73;;;6.00;99.90;;;;;;4964298;22;20655;-76
2021/01/03 07:01:25;;;;;;;11.47;8.77;;;6.00;99.90;;;;;;4954596;28;20188;-74
2021/01/03 07:03:54;;;;;;;14.30;7.83;;;6.10;99.90;;;;;;4954514;28;20442;-76
2021/01/03 07:06:20;;;;;;;12.60;8.20;;;6.10;99.90;;;;;;4954620;28;20446;-78
2021/01/03 07:08:52;;;;;;;11.37;7.77;;;6.00;99.90;;;;;;4954410;28;20428;-77
2021/01/03 07:11:39;;;;;;;10.77;7.37;;;6.10;99.90;;;;;;4954376;28;20474;-77
2021/01/03 07:14:36;;;;;;;10.13;8.17;;;6.00;99.90;;;;;;4954405;28;20431;-78
2021/01/03 07:17:04;;;;;;;12.67;8.00;;;6.00;99.90;;;;;;4940462;28;20441;-73
2021/01/03 07:19:29;;;;;;;13.10;8.73;;;6.00;99.90;;;;;;4954238;28;20787;-77
2021/01/03 07:22:12;;;;;;;9.53;7.50;;;6.00;99.90;;;;;;4954288;28;20439;-74
2021/01/03 07:24:46;;;;;;;12.25;8.05;;;6.10;99.90;;;;;;4953657;28;20516;-75
2021/01/03 07:27:33;;;;;;;11.10;8.80;;;6.00;99.90;;;;;;4954229;28;20198;-75
2021/01/03 07:30:04;;;;;;;10.50;8.63;;;6.00;99.90;;;;;;4954239;28;20517;-74
2021/01/03 07:32:32;;;;;;;12.50;8.10;;;6.00;99.90;;;;;;4954346;28;20790;-76
2021/01/03 07:35:00;;;;;;;11.67;8.47;;;6.00;99.90;;;;;;4954215;28;20769;-77
2021/01/03 07:37:29;;;;;;;14.50;8.30;;;6.00;99.90;;;;;;4954052;28;20953;-75
2021/01/03 07:39:57;;;;;;;10.33;7.47;;;6.00;99.90;;;;;;4953997;28;20434;-75
2021/01/03 07:42:29;;;;;;;11.30;6.80;;;6.00;99.90;;;;;;4954279;28;20448;-76
2021/01/03 07:44:56;;;;;;;9.90;6.97;;;6.00;99.90;;;;;;4953828;28;20471;-80
2021/01/03 07:47:44;;;;;;;9.70;7.17;;;6.00;99.90;;;;;;4953842;28;20450;-75
2021/01/03 07:50:18;;;;;;;12.77;7.83;;;6.00;99.90;;;;;;4954086;28;20879;-77
2021/01/03 07:52:57;;;;;;;11.33;8.33;;;6.00;99.90;;;;;;4953941;28;20436;-75
2021/01/03 07:55:23;;;;;;;9.80;7.70;;;6.00;99.90;;;;;;4954107;28;20436;-76
2021/01/03 07:58:04;;;;;;;10.17;7.67;;;6.00;99.90;;;;;;4953764;28;20564;-74
2021/01/03 08:00:33;;;;;;;7.73;6.30;;;6.00;99.90;;;;;;4952783;29;20256;-75
2021/01/03 08:03:04;;;;;;;9.80;7.10;;;6.00;99.90;;;;;;4953892;28;20785;-75
2021/01/03 08:05:31;;;;;;;8.07;6.30;;;6.10;99.90;;;;;;4953993;28;20425;-75
2021/01/03 08:08:24;;;;;;;9.30;8.00;;;6.10;99.90;;;;;;4952670;29;20452;-74
2021/01/03 08:11:02;;;;;;;8.33;6.50;;;6.10;99.90;;;;;;4953823;28;20941;-74
2021/01/03 08:13:33;;;;;;;7.40;6.43;;;6.00;99.90;;;;;;4953709;28;20806;-75
2021/01/03 08:16:00;;;;;;;9.03;6.30;;;6.10;99.90;;;;;;4953811;28;20477;-77
2021/01/03 08:18:29;;;;;;;11.13;7.13;;;6.10;99.90;;;;;;4953674;28;20920;-76
2021/01/03 08:21:24;;;;;;;9.20;7.20;;;6.10;99.90;;;;;;4953562;28;20439;-75
2021/01/03 08:23:50;;;;;;;6.20;5.60;;;6.10;99.90;;;;;;4945371;28;20948;-81
2021/01/03 08:26:22;;;;;;;6.90;5.97;;;6.10;99.90;;;;;;4953698;28;20436;-76
2021/01/03 08:29:03;;;;;;;6.73;6.03;;;6.10;99.90;;;;;;4953738;28;20179;-76
2021/01/03 08:31:30;;;;;;;7.23;6.20;;;6.10;99.90;;;;;;4956057;28;21043;-79
2021/01/03 08:33:58;;;;;;;8.18;6.63;;;6.10;99.90;;;;;;4956339;28;20798;-83
2021/01/03 08:36:31;;;;;;;9.13;7.37;;;6.20;99.90;;;;;;4957202;28;20194;-80
2021/01/03 08:39:08;;;;;;;7.30;6.60;;;6.20;99.90;;;;;;4957542;28;20481;-77
2021/01/03 08:41:56;;;;;;;7.47;6.77;;;6.20;99.90;;;;;;4956942;28;20433;-80
2021/01/03 08:44:25;;;;;;;9.57;6.20;;;6.20;99.90;;;;;;4949728;28;20921;-80
2021/01/03 08:47:01;;;;;;;7.60;6.23;;;6.20;99.90;;;;;;4957731;28;20436;-78
2021/01/03 08:49:26;;;;;;;6.97;5.30;;;6.20;99.90;;;;;;4958270;28;20774;-79
2021/01/03 08:52:07;;;;;;;7.33;5.73;;;6.20;99.90;;;;;;4957314;28;20485;-75
2021/01/03 08:54:33;;;;;;;12.30;5.30;;;6.20;99.90;;;;;;4957166;28;20187;-76
2021/01/03 08:57:01;;;;;;;6.30;5.37;;;6.20;99.90;;;;;;4957256;28;20488;-81
2021/01/03 08:59:26;;;;;;;5.27;4.70;;;6.20;99.90;;;;;;4956914;28;20184;-79
2021/01/03 09:01:52;;;;;;;8.03;5.30;;;6.20;99.90;;;;;;4956754;28;20425;-79
2021/01/03 09:04:20;;;;;;;8.37;5.10;;;6.20;99.90;;;;;;4956330;28;20214;-78
2021/01/03 09:06:52;;;;;;;6.83;4.53;;;6.40;99.90;;;;;;4956465;28;20178;-77
2021/01/03 09:09:21;;;;;;;6.13;4.73;;;6.30;99.90;;;;;;4956610;28;20492;-78
2021/01/03 09:11:59;;;;;;;6.13;4.83;;;6.30;99.90;;;;;;4961997;28;20563;-78
2021/01/03 09:14:40;;;;;;;6.67;5.03;;;6.30;99.90;;;;;;4963587;28;20417;-79
2021/01/03 09:17:17;;;;;;;6.80;5.63;;;6.30;99.90;;;;;;4962155;28;20432;-78
2021/01/03 09:19:50;;;;;;;5.63;5.03;;;6.30;99.90;;;;;;4954393;28;20445;-78
2021/01/03 09:22:31;;;;;;;8.57;4.90;;;6.20;99.90;;;;;;4960876;28;20544;-77
2021/01/03 09:24:59;;;;;;;6.30;4.80;;;6.30;99.90;;;;;;4959782;28;20488;-77
2021/01/03 09:27:29;;;;;;;8.70;5.30;;;6.30;99.90;;;;;;4952556;28;20442;-75
2021/01/03 09:30:08;;;;;;;10.60;5.67;;;6.30;99.90;;;;;;4959558;28;20499;-76
2021/01/03 09:32:35;;;;;;;6.67;5.20;;;6.30;99.90;;;;;;4962660;28;20449;-76
2021/01/03 09:35:27;;;;;;;7.23;5.80;;;6.20;99.90;;;;;;4965919;28;20446;-78
2021/01/03 09:38:28;;;;;;;7.00;4.43;;;6.30;99.90;;;;;;4965319;28;20768;-75
2021/01/03 09:41:24;;;;;;;6.90;5.03;;;6.20;99.90;;;;;;4965198;28;20427;-75
2021/01/03 09:43:57;;;;;;;9.20;5.60;;;6.20;99.90;;;;;;4964348;28;20480;-75
2021/01/03 09:46:28;;;;;;;9.47;5.80;;;6.30;99.90;;;;;;4956504;29;20429;-75
2021/01/03 09:48:54;;;;;;;8.90;5.37;;;6.30;99.90;;;;;;4957218;28;20446;-81
2021/01/03 09:51:39;;;;;;;9.50;5.60;;;6.30;99.90;;;;;;4957728;28;20988;-83
2021/01/03 09:54:16;;;;;;;6.17;4.80;;;6.40;99.90;;;;;;4961047;28;20189;-80
2021/01/03 09:56:43;;;;;;;9.77;6.30;;;6.50;99.90;;;;;;4967832;28;20479;-80
2021/01/03 09:59:11;;;;;;;11.20;6.03;;;6.60;99.90;;;;;;4962330;28;20465;-80
2021/01/03 10:01:37;;;;;;;7.30;5.40;;;6.70;99.90;;;;;;4960482;28;20490;-80
2021/01/03 10:04:21;;;;;;;8.77;5.70;;;6.60;99.90;;;;;;4953660;28;20438;-79
2021/01/03 10:06:54;;;;;;;7.67;5.60;;;6.60;99.90;;;;;;4937507;29;20493;-80
2021/01/03 10:09:25;;;;;;;6.27;4.77;;;6.50;99.90;;;;;;4945964;28;20538;-79
2021/01/03 10:11:52;;;;;;;7.13;5.47;;;6.60;99.90;;;;;;4956031;28;20481;-79
2021/01/03 10:14:33;;;;;;;6.37;5.53;;;6.80;99.90;;;;;;4962200;28;20775;-79
2021/01/03 10:17:21;;;;;;;7.23;5.13;;;6.80;99.90;;;;;;4955557;28;20452;-80
2021/01/03 10:19:47;;;;;;;7.13;5.37;;;6.70;99.90;;;;;;4963454;28;20468;-80
2021/01/03 10:22:41;;;;;;;8.37;5.83;;;6.70;99.90;;;;;;4969823;28;20932;-78
2021/01/03 10:25:10;;;;;;;8.53;5.27;;;6.60;99.90;;;;;;4956096;28;20508;-79
2021/01/03 10:27:36;;;;;;;5.70;5.20;;;6.50;99.90;;;;;;4952119;28;20444;-75
2021/01/03 10:30:05;;;;;;;6.23;5.10;;;6.50;99.90;;;;;;4955864;28;20445;-74
2021/01/03 10:32:30;;;;;;;6.60;5.30;;;6.30;99.90;;;;;;4962027;28;20205;-78
2021/01/03 10:34:56;;;;;;;8.23;5.50;;;6.40;99.90;;;;;;4965455;28;20437;-80
2021/01/03 10:37:21;;;;;;;6.73;4.70;;;6.40;99.90;;;;;;4963427;28;20272;-79
2021/01/03 10:39:48;;;;;;;8.33;5.87;;;6.40;99.90;;;;;;4963247;28;20517;-76
2021/01/03 10:42:14;;;;;;;8.10;5.40;;;6.40;99.90;;;;;;4964276;28;20174;-76
2021/01/03 10:44:39;;;;;;;5.50;4.70;;;6.40;99.90;;;;;;4964361;28;20430;-74
2021/01/03 10:47:05;;;;;;;6.17;4.40;;;6.40;99.90;;;;;;4962863;28;20650;-77
2021/01/03 10:49:31;;;;;;;6.47;4.43;;;6.40;99.90;;;;;;4967901;28;20193;-73
2021/01/03 10:51:56;;;;;;;6.90;5.53;;;6.50;99.90;;;;;;4954503;29;20221;-77
2021/01/03 10:54:25;;;;;;;4.47;4.07;;;6.50;99.90;;;;;;4953990;28;20178;-76
2021/01/03 10:56:53;;;;;;;7.30;4.60;;;6.50;99.90;;;;;;4954204;28;20600;-78
2021/01/03 10:59:19;;;;;;;7.17;5.20;;;6.50;99.90;;;;;;4954536;28;20418;-79
2021/01/03 11:01:45;;;;;;;5.10;4.40;;;6.40;99.90;;;;;;4954489;28;20509;-77
2021/01/03 11:04:14;;;;;;;7.63;5.27;;;6.50;99.90;;;;;;4958814;28;20430;-77
2021/01/03 11:06:43;;;;;;;5.30;4.60;;;6.50;99.90;;;;;;4959385;28;20432;-74
2021/01/03 11:09:35;;;;;;;8.50;6.00;;;6.50;99.90;;;;;;4963640;28;20444;-75
2021/01/03 11:12:06;;;;;;;6.10;4.77;;;6.50;99.90;;;;;;4964167;28;20858;-79
2021/01/03 11:14:32;;;;;;;5.53;4.37;;;6.60;99.90;;;;;;4963980;28;20489;-78
2021/01/03 11:16:58;;;;;;;5.30;4.70;;;6.60;99.90;;;;;;4962274;28;20462;-80
2021/01/03 11:19:23;;;;;;;6.60;5.17;;;6.60;99.90;;;;;;4962953;28;20480;-75
2021/01/03 11:22:00;;;;;;;7.00;4.90;;;6.60;99.90;;;;;;4963855;28;20231;-78
2021/01/03 11:24:25;;;;;;;8.43;5.17;;;6.60;99.90;;;;;;4961034;28;20174;-81
2021/01/03 11:26:51;;;;;;;5.43;4.93;;;6.60;99.90;;;;;;4963143;28;20940;-78
2021/01/03 11:29:20;;;;;;;12.60;5.83;;;6.60;99.90;;;;;;4964169;28;20185;-78
2021/01/03 11:31:51;;;;;;;6.63;5.97;;;6.60;99.90;;;;;;4962933;28;20481;-76
2021/01/03 11:34:20;;;;;;;5.13;4.50;;;6.60;99.90;;;;;;4962227;28;20771;-77
2021/01/03 11:36:49;;;;;;;8.37;5.43;;;6.60;99.90;;;;;;4961087;28;20441;-81
2021/01/03 11:39:16;;;;;;;7.53;5.30;;;6.60;99.90;;;;;;4970604;28;20784;-73
2021/01/03 11:41:45;;;;;;;6.53;4.83;;;6.60;99.90;;;;;;4973592;28;20440;-79
2021/01/03 11:44:11;;;;;;;6.40;5.40;;;6.60;99.90;;;;;;4973287;28;20422;-75
2021/01/03 11:46:36;;;;;;;5.30;4.43;;;6.60;99.90;;;;;;4973289;28;20790;-82
2021/01/03 11:49:02;;;;;;;7.33;5.70;;;6.70;99.90;;;;;;4973358;28;20180;-79
2021/01/03 11:51:27;;;;;;;6.57;5.23;;;6.70;99.90;;;;;;4973140;28;20217;-76
2021/01/03 11:53:53;;;;;;;10.13;6.50;;;6.70;99.90;;;;;;4973427;28;20188;-74
2021/01/03 11:56:20;;;;;;;9.57;6.23;;;6.60;99.90;;;;;;4963394;28;20217;-78
2021/01/03 11:58:46;;;;;;;7.63;5.63;;;6.60;99.90;;;;;;4962631;28;20657;-81
2021/01/03 12:01:16;;;;;;;7.00;5.00;;;6.50;99.90;;;;;;4952575;28;20771;-79
2021/01/03 12:03:41;;;;;;;7.07;5.20;;;6.60;99.90;;;;;;4951658;28;20448;-82
2021/01/03 12:06:07;;;;;;;8.00;4.83;;;6.60;99.90;;;;;;4954052;28;20442;-78
2021/01/03 12:08:32;;;;;;;7.70;5.80;;;6.60;99.90;;;;;;4958450;28;20178;-78
2021/01/03 12:10:58;;;;;;;8.90;6.33;;;6.60;99.90;;;;;;4964926;28;20202;-78
2021/01/03 12:13:23;;;;;;;10.20;9.20;;;6.60;99.90;;;;;;4972643;28;20602;-79
2021/01/03 12:15:49;;;;;;;8.60;6.13;;;6.60;99.90;;;;;;4974951;28;20177;-79
2021/01/03 12:18:15;;;;;;;8.00;5.93;;;6.60;99.90;;;;;;4969460;28;20249;-79
2021/01/03 12:20:41;;;;;;;9.23;6.13;;;6.60;99.90;;;;;;4965420;28;20236;-79
2021/01/03 12:23:06;;;;;;;8.27;6.53;;;6.70;99.90;;;;;;4958487;28;20190;-78
2021/01/03 12:25:32;;;;;;;10.37;6.80;;;6.60;99.90;;;;;;4955663;29;20425;-77
2021/01/03 12:27:58;;;;;;;8.87;6.27;;;6.60;99.90;;;;;;4956452;28;20189;-79
2021/01/03 12:30:24;;;;;;;9.03;6.73;;;6.60;99.90;;;;;;4956474;29;20572;-80
2021/01/03 12:32:49;;;;;;;12.73;7.13;;;6.40;99.90;;;;;;4956024;28;20190;-79
2021/01/03 12:35:15;;;;;;;11.45;7.88;;;6.40;99.90;;;;;;4960874;28;20434;-74
2021/01/03 12:37:40;;;;;;;10.50;7.37;;;6.50;99.90;;;;;;4964625;28;20184;-75
2021/01/03 12:40:11;;;;;;;13.23;7.40;;;6.50;99.90;;;;;;4963410;28;20262;-74
2021/01/03 12:42:37;;;;;;;9.73;6.87;;;6.50;99.90;;;;;;4955281;28;20184;-77
2021/01/03 12:45:07;;;;;;;12.10;7.90;;;6.50;99.90;;;;;;4955308;29;20504;-75
2021/01/03 12:47:33;;;;;;;10.90;7.40;;;6.50;99.90;;;;;;4955054;28;20442;-75
2021/01/03 12:49:59;;;;;;;11.63;7.33;;;6.40;99.90;;;;;;4955188;28;21017;-75
2021/01/03 12:52:25;;;;;;;9.53;7.37;;;6.50;99.90;;;;;;4955125;28;21487;-75
2021/01/03 12:54:51;;;;;;;11.37;6.40;;;6.40;99.90;;;;;;4952426;28;20481;-75
2021/01/03 12:58:22;;;;;;;11.20;8.30;;;6.40;99.90;;;;;;5089552;27;21088;-74
2021/01/03 13:00:48;;;;;;;12.03;8.67;;;6.30;99.90;;;;;;5089209;28;20434;-74
2021/01/03 13:03:15;;;;;;;10.70;7.43;;;6.30;99.90;;;;;;5089535;28;20513;-74
2021/01/03 13:05:41;;;;;;;14.00;7.90;;;6.30;99.90;;;;;;5086457;28;20178;-75
2021/01/03 13:08:06;;;;;;;15.23;8.73;;;6.20;99.90;;;;;;5089247;28;20446;-74
2021/01/03 13:10:32;;;;;;;11.60;7.63;;;6.20;99.90;;;;;;5088964;28;20591;-75
2021/01/03 13:12:57;;;;;;;13.37;9.57;;;6.10;99.90;;;;;;5089213;28;20449;-68
2021/01/03 13:15:23;;;;;;;15.73;9.17;;;6.10;99.90;;;;;;5089725;28;20174;-67
2021/01/03 13:17:48;;;;;;;13.17;7.73;;;6.20;99.90;;;;;;5089384;28;20690;-67
2021/01/03 13:20:14;;;;;;;13.20;9.00;;;6.20;99.90;;;;;;5089366;28;20213;-67
2021/01/03 13:22:40;;;;;;;11.13;8.20;;;6.30;99.90;;;;;;5089422;28;20532;-67
2021/01/03 13:25:06;;;;;;;12.50;7.70;;;6.30;99.90;;;;;;5089340;28;20465;-67
2021/01/03 13:27:32;;;;;;;12.33;8.10;;;6.30;99.90;;;;;;5089220;28;20268;-68
2021/01/03 13:29:57;;;;;;;12.10;7.53;;;6.30;99.90;;;;;;5089121;28;20911;-67
2021/01/03 13:32:23;;;;;;;14.30;8.40;;;6.30;99.90;;;;;;5089283;28;20191;-67
2021/01/03 13:34:48;;;;;;;14.77;9.03;;;6.20;99.90;;;;;;5089006;28;20185;-69
2021/01/03 13:37:14;;;;;;;15.27;9.17;;;6.20;99.90;;;;;;5089139;28;20224;-68
2021/01/03 13:39:39;;;;;;;10.67;7.20;;;6.20;99.90;;;;;;5089564;28;20664;-68
2021/01/03 13:42:05;;;;;;;13.30;8.67;;;6.20;99.90;;;;;;5089255;28;20655;-68
2021/01/03 13:44:30;;;;;;;17.60;9.03;;;6.20;99.90;;;;;;5089141;28;20261;-68
2021/01/03 13:46:58;;;;;;;14.60;8.87;;;6.20;99.90;;;;;;5088844;28;20174;-68
2021/01/03 13:49:23;;;;;;;14.03;8.87;;;6.20;99.90;;;;;;5087524;28;20223;-67
2021/01/03 13:51:49;;;;;;;10.30;7.60;;;6.30;99.90;;;;;;5088955;28;20428;-67
2021/01/03 13:54:16;;;;;;;13.40;8.70;;;6.30;99.90;;;;;;5088791;28;20177;-68
2021/01/03 13:56:41;;;;;;;16.53;9.60;;;6.40;99.90;;;;;;5088449;28;20271;-68
2021/01/03 13:59:07;;;;;;;14.87;9.93;;;6.30;99.90;;;;;;5088751;28;20432;-68
2021/01/03 14:01:35;;;;;;;11.80;8.23;;;6.20;99.90;;;;;;5088369;28;20179;-67
2021/01/03 14:04:01;;;;;;;14.57;8.63;;;6.00;99.90;;;;;;5087121;28;20609;-68
2021/01/03 14:06:26;;;;;;;12.40;8.60;;;6.10;99.90;;;;;;5088052;28;20451;-68
2021/01/03 14:08:56;;;;;;;14.27;9.43;;;6.00;99.90;;;;;;5079911;28;20202;-68
2021/01/03 14:11:30;;;;;;;10.53;8.00;;;6.10;99.90;;;;;;5074905;28;20570;-69
2021/01/03 14:13:57;;;;;;;15.97;9.07;;;6.00;99.90;;;;;;5073003;28;20527;-68
2021/01/03 14:16:28;;;;;;;12.20;7.37;;;6.00;99.90;;;;;;5074604;28;20459;-68
2021/01/03 14:18:54;;;;;;;13.27;8.80;;;5.90;99.90;;;;;;5074544;28;20424;-69
2021/01/03 14:21:21;;;;;;;19.70;8.57;;;6.00;99.90;;;;;;5074589;28;20424;-69
2021/01/03 14:23:48;;;;;;;13.67;8.30;;;5.90;99.90;;;;;;5074568;28;20805;-68
2021/01/03 14:26:13;;;;;;;14.10;8.90;;;5.80;99.90;;;;;;5074482;28;20428;-69
2021/01/03 14:28:39;;;;;;;11.00;7.37;;;5.80;99.90;;;;;;5074623;28;20837;-69
2021/01/03 14:31:21;;;;;;;11.73;8.33;;;5.80;99.90;;;;;;5076239;28;20181;-69
2021/01/03 14:33:46;;;;;;;12.17;7.40;;;5.70;99.90;;;;;;5072897;28;20178;-70
2021/01/03 14:36:12;;;;;;;13.83;8.73;;;5.80;99.90;;;;;;5078184;28;20538;-70
2021/01/03 14:38:38;;;;;;;12.67;8.47;;;5.80;99.90;;;;;;5079581;28;20189;-67
2021/01/03 14:41:04;;;;;;;14.53;8.67;;;5.80;99.90;;;;;;5080409;28;20186;-66
2021/01/03 14:43:37;;;;;;;11.93;8.07;;;5.90;99.90;;;;;;5075475;28;20175;-67
2021/01/03 14:46:10;;;;;;;12.53;7.93;;;6.00;99.90;;;;;;5071095;28;20915;-65
2021/01/03 14:49:13;;;;;;;10.80;7.83;;;5.90;99.90;;;;;;5073746;28;20470;-67
2021/01/03 14:51:40;;;;;;;14.33;9.03;;;5.90;99.90;;;;;;5074275;28;20428;-66
2021/01/03 14:54:12;;;;;;;14.23;8.27;;;5.90;99.90;;;;;;5073941;28;20427;-67
2021/01/03 14:56:56;;;;;;;11.13;8.30;;;5.90;99.90;;;;;;5073538;28;20507;-69
2021/01/03 14:59:32;;;;;;;15.77;10.10;;;5.90;99.90;;;;;;5072872;28;20422;-70
2021/01/03 15:02:06;;;;;;;12.53;8.40;;;5.80;99.90;;;;;;5073797;28;20205;-68
2021/01/03 15:04:49;;;;;;;15.30;8.90;;;5.90;99.90;;;;;;5073666;28;20434;-69
2021/01/03 15:07:23;;;;;;;13.80;9.00;;;5.80;99.90;;;;;;5073619;28;20763;-69
2021/01/03 15:09:52;;;;;;;15.47;9.40;;;5.70;99.90;;;;;;5073495;28;20467;-66
2021/01/03 15:12:21;;;;;;;13.57;9.30;;;5.80;99.90;;;;;;5073653;28;20786;-67
2021/01/03 15:14:48;;;;;;;11.87;7.73;;;5.80;99.90;;;;;;5073339;28;20512;-67
2021/01/03 15:17:43;;;;;;;13.97;9.40;;;5.60;99.90;;;;;;5073284;28;20567;-67
2021/01/03 15:20:24;;;;;;;11.70;7.70;;;5.60;99.90;;;;;;5072328;28;20486;-68
2021/01/03 15:22:57;;;;;;;13.60;8.50;;;5.60;99.90;;;;;;5073270;28;20466;-67
2021/01/03 15:25:33;;;;;;;13.70;7.80;;;5.60;99.90;;;;;;5073325;28;20440;-71
2021/01/03 15:28:00;;;;;;;11.80;8.30;;;5.60;99.90;;;;;;5073315;28;20903;-69
2021/01/03 15:30:47;;;;;;;15.13;8.20;;;5.50;99.90;;;;;;5073275;28;20416;-68
2021/01/03 15:33:18;;;;;;;16.80;9.13;;;5.50;99.90;;;;;;5073176;28;20427;-68
2021/01/03 15:35:45;;;;;;;11.67;7.83;;;5.50;99.90;;;;;;5072899;28;20446;-68
2021/01/03 15:38:13;;;;;;;11.40;7.20;;;5.50;99.90;;;;;;5072870;28;20474;-68
2021/01/03 15:41:01;;;;;;;16.03;9.60;;;5.50;99.90;;;;;;5073016;28;20780;-68
2021/01/03 15:43:43;;;;;;;11.97;7.80;;;5.50;99.90;;;;;;5072157;28;20433;-67
2021/01/03 15:46:09;;;;;;;14.40;8.17;;;5.40;99.90;;;;;;5070325;28;20961;-68
2021/01/03 15:48:40;;;;;;;14.63;9.77;;;5.50;99.90;;;;;;5072336;28;20428;-68
2021/01/03 15:51:05;;;;;;;13.73;8.33;;;5.50;99.90;;;;;;5069581;28;20653;-68
2021/01/03 15:53:32;;;;;;;10.50;7.37;;;5.50;99.90;;;;;;5072495;28;20467;-68
2021/01/03 15:56:03;;;;;;;10.90;8.00;;;5.50;99.90;;;;;;5072003;28;20167;-67
2021/01/03 15:58:29;;;;;;;10.90;7.90;;;5.50;99.90;;;;;;5069792;28;20531;-70
2021/01/03 16:00:55;;;;;;;11.53;7.33;;;5.60;99.90;;;;;;5072113;28;20500;-68
2021/01/03 16:03:20;;;;;;;11.57;7.13;;;5.60;99.90;;;;;;5072222;28;20653;-68
2021/01/03 16:05:46;;;;;;;12.33;9.00;;;5.50;99.90;;;;;;5071917;28;20474;-68
2021/01/03 16:08:11;;;;;;;11.57;7.57;;;5.60;99.90;;;;;;5072415;28;20588;-68
2021/01/03 16:10:37;;;;;;;11.00;7.50;;;5.60;99.90;;;;;;5072425;28;20279;-68
2021/01/03 16:13:03;;;;;;;12.03;8.00;;;5.60;99.90;;;;;;5072657;28;20603;-68
2021/01/03 16:15:29;;;;;;;13.33;7.60;;;5.60;99.90;;;;;;5074776;28;20181;-68
2021/01/03 16:17:54;;;;;;;12.23;8.03;;;5.60;99.90;;;;;;5071849;28;20296;-68
2021/01/03 16:20:21;;;;;;;9.37;6.70;;;5.60;99.90;;;;;;5071944;28;20174;-67
2021/01/03 16:22:54;;;;;;;9.07;6.97;;;5.50;99.90;;;;;;5069496;28;20189;-68
2021/01/03 16:25:49;;;;;;;8.90;6.30;;;5.50;99.90;;;;;;5072137;28;20764;-68
2021/01/03 16:28:34;;;;;;;8.93;6.83;;;5.50;99.90;;;;;;5072239;28;20431;-69
2021/01/03 16:31:15;;;;;;;11.80;7.20;;;5.60;99.90;;;;;;5072042;28;20450;-71
2021/01/03 16:33:49;;;;;;;12.80;7.80;;;5.60;99.90;;;;;;5071917;28;20516;-69
2021/01/03 16:36:54;;;;;;;9.43;6.37;;;5.60;99.90;;;;;;5072154;28;20455;-67
2021/01/03 16:39:49;;;;;;;15.07;9.20;;;5.60;99.90;;;;;;5070904;28;20451;-69
2021/01/03 16:42:18;;;;;;;11.50;7.70;;;5.60;99.90;;;;;;5063618;28;20429;-69
2021/01/03 16:44:56;;;;;;;12.57;7.40;;;5.60;99.90;;;;;;5072133;28;20427;-70
2021/01/03 16:47:41;;;;;;;11.83;8.20;;;5.50;99.90;;;;;;5072161;28;20420;-69
2021/01/03 16:50:13;;;;;;;11.07;7.40;;;5.50;99.90;;;;;;5072195;28;20417;-69
2021/01/03 16:53:08;;;;;;;11.50;8.03;;;5.50;99.90;;;;;;5071981;28;20442;-69
2021/01/03 16:55:59;;;;;;;11.20;7.70;;;5.50;99.90;;;;;;5071915;28;20428;-68
2021/01/03 16:58:44;;;;;;;10.20;7.40;;;5.50;99.90;;;;;;5061474;28;20549;-68
2021/01/03 17:01:22;;;;;;;10.30;7.67;;;5.50;99.90;;;;;;5072046;28;20463;-68
2021/01/03 17:03:58;;;;;;;12.00;7.43;;;5.50;99.90;;;;;;5071693;28;20432;-68
2021/01/03 17:06:56;;;;;;;9.03;7.20;;;5.50;99.90;;;;;;5072629;28;20428;-67
2021/01/03 17:09:41;;;;;;;12.23;7.13;;;5.50;99.90;;;;;;5063779;28;20435;-67
2021/01/03 17:12:32;;;;;;;9.00;6.97;;;5.50;99.90;;;;;;5079607;28;20519;-68
2021/01/03 17:15:32;;;;;;;11.20;5.73;;;5.50;99.90;;;;;;5087327;28;20430;-67
2021/01/03 17:18:29;;;;;;;11.30;6.70;;;5.50;99.90;;;;;;5025437;28;20481;-68
2021/01/03 17:21:28;;;;;;;7.00;6.07;;;5.50;99.90;;;;;;5070020;28;20427;-68
2021/01/03 17:24:15;;;;;;;9.80;7.40;;;5.50;99.90;;;;;;5063707;28;20467;-67
2021/01/03 17:26:49;;;;;;;7.27;5.40;;;5.40;99.90;;;;;;5080784;28;20430;-67
2021/01/03 17:29:31;;;;;;;9.27;6.73;;;5.50;99.90;;;;;;5074863;28;20439;-68
2021/01/03 17:32:32;;;;;;;10.10;5.97;;;5.50;99.90;;;;;;5070752;28;20426;-68
2021/01/03 17:35:03;;;;;;;11.30;6.53;;;5.50;99.90;;;;;;5085422;28;20442;-75
2021/01/03 17:37:46;;;;;;;11.13;5.53;;;5.50;99.90;;;;;;5078028;28;20908;-73
2021/01/03 17:40:16;;;;;;;6.50;5.10;;;5.50;99.90;;;;;;5073711;28;20436;-74
2021/01/03 17:42:45;;;;;;;8.77;5.87;;;5.50;99.90;;;;;;5073676;28;20420;-74
2021/01/03 17:45:15;;;;;;;7.47;5.00;;;5.50;99.90;;;;;;5077684;28;20430;-74
2021/01/03 17:47:47;;;;;;;9.83;6.80;;;5.50;99.90;;;;;;5079532;28;20449;-73
2021/01/03 17:50:19;;;;;;;9.60;6.13;;;5.50;99.90;;;;;;5077551;28;20512;-73
2021/01/03 17:52:46;;;;;;;9.50;6.67;;;5.40;99.90;;;;;;5075041;28;20480;-74
2021/01/03 17:55:13;;;;;;;6.50;5.80;;;5.40;99.90;;;;;;5082671;28;20436;-74